Time;durP1;ratioP1;P1;durP2;ratioP2;P2;SDS_P1;SDS_P2;PMS_P1;PMS_P2;Temp;Humidity;BMP_temperature;BMP_pressure;BME280_temperature;BME280_humidity;BME280_pressure;Samples;Min_cycle;Max_cycle;Signal;HPM_P1;HPM_P2
2022/05/22 00:00:23;;;;;;;27.33;7.65;;;24.00;99.90;;;;;;5006302;28;20054;-55
2022/05/22 00:02:50;;;;;;;24.25;5.93;;;24.00;99.90;;;;;;4996904;28;20375;-56
2022/05/22 00:05:18;;;;;;;22.48;5.40;;;24.00;99.90;;;;;;5007288;28;20422;-55
2022/05/22 00:07:44;;;;;;;19.02;5.88;;;24.10;99.90;;;;;;5002389;28;20032;-54
2022/05/22 00:10:10;;;;;;;20.17;6.55;;;24.10;99.90;;;;;;5007184;28;20116;-57
2022/05/22 00:12:36;;;;;;;22.45;7.15;;;24.10;99.90;;;;;;5012612;28;20474;-54
2022/05/22 00:15:02;;;;;;;22.42;5.82;;;24.10;99.90;;;;;;5012560;28;20026;-54
2022/05/22 00:17:28;;;;;;;22.88;5.82;;;24.10;99.90;;;;;;5012625;28;20030;-53
2022/05/22 00:19:54;;;;;;;26.75;7.25;;;24.10;99.90;;;;;;5006885;28;20034;-54
2022/05/22 00:22:20;;;;;;;22.70;6.70;;;24.00;99.90;;;;;;5006987;28;20478;-55
2022/05/22 00:24:46;;;;;;;25.65;7.63;;;24.00;99.90;;;;;;5009699;28;20510;-54
2022/05/22 00:27:12;;;;;;;21.95;6.75;;;23.80;99.90;;;;;;5012739;28;20022;-52
2022/05/22 00:29:38;;;;;;;27.90;6.47;;;23.80;99.90;;;;;;5006624;28;20379;-56
2022/05/22 00:32:05;;;;;;;22.87;6.93;;;23.70;99.90;;;;;;5003110;28;20026;-55
2022/05/22 00:34:31;;;;;;;30.10;7.27;;;23.80;99.90;;;;;;5004530;28;20389;-55
2022/05/22 00:36:57;;;;;;;22.27;7.38;;;23.70;99.90;;;;;;5000147;28;20280;-54
2022/05/22 00:39:23;;;;;;;25.25;6.50;;;23.70;99.90;;;;;;5011142;28;20018;-54
2022/05/22 00:41:54;;;;;;;23.25;6.85;;;23.80;99.90;;;;;;5011162;28;20061;-54
2022/05/22 00:44:20;;;;;;;18.98;6.13;;;23.80;99.90;;;;;;5010453;28;20026;-55
2022/05/22 00:46:47;;;;;;;22.27;7.28;;;23.80;99.90;;;;;;5011155;28;20513;-55
2022/05/22 00:49:23;;;;;;;17.95;6.05;;;23.80;99.90;;;;;;5013282;28;20021;-55
2022/05/22 00:51:55;;;;;;;17.58;6.18;;;23.80;99.90;;;;;;5011978;28;20033;-55
2022/05/22 00:54:24;;;;;;;17.35;6.57;;;23.80;99.90;;;;;;5011984;28;20042;-55
2022/05/22 00:57:30;;;;;;;18.88;5.82;;;23.80;99.90;;;;;;5010878;28;20057;-52
2022/05/22 01:00:12;;;;;;;19.48;5.53;;;23.80;99.90;;;;;;5017282;23;20054;-56
2022/05/22 01:05:23;;;;;;;19.83;6.28;;;23.70;99.90;;;;;;4991222;28;20077;-55
2022/05/22 01:07:49;;;;;;;18.30;5.15;;;23.80;99.90;;;;;;4985134;28;20414;-54
2022/05/22 01:10:16;;;;;;;17.70;5.97;;;23.80;99.90;;;;;;4989894;28;20023;-54
2022/05/22 01:12:43;;;;;;;16.70;6.05;;;23.80;99.90;;;;;;4991695;28;20466;-54
2022/05/22 01:15:11;;;;;;;24.67;7.57;;;23.80;99.90;;;;;;4991686;28;20254;-55
2022/05/22 01:17:43;;;;;;;19.20;6.30;;;23.80;99.90;;;;;;4989854;28;20037;-54
2022/05/22 01:20:10;;;;;;;19.58;6.35;;;23.80;99.90;;;;;;4990496;28;20029;-56
2022/05/22 01:22:36;;;;;;;25.83;5.75;;;23.80;99.90;;;;;;4985268;28;20023;-56
2022/05/22 01:25:02;;;;;;;21.33;6.35;;;23.70;99.90;;;;;;4990536;28;20406;-56
2022/05/22 01:27:28;;;;;;;20.08;5.55;;;23.70;99.90;;;;;;4986508;28;20022;-56
2022/05/22 01:30:17;;;;;;;18.92;6.57;;;23.70;99.90;;;;;;4987617;28;20023;-54
2022/05/22 01:32:46;;;;;;;21.42;5.78;;;23.70;99.90;;;;;;4990451;28;20022;-56
2022/05/22 01:35:15;;;;;;;18.25;5.65;;;23.70;99.90;;;;;;4980704;28;20508;-55
2022/05/22 01:37:42;;;;;;;15.32;5.53;;;23.80;99.90;;;;;;4987429;28;20069;-55
2022/05/22 01:40:09;;;;;;;20.92;5.45;;;23.70;99.90;;;;;;4978874;28;20034;-56
2022/05/22 01:42:36;;;;;;;18.10;6.88;;;23.70;99.90;;;;;;4978856;28;20018;-56
2022/05/22 01:45:03;;;;;;;23.60;6.00;;;23.70;99.90;;;;;;4972289;28;20086;-56
2022/05/22 01:47:32;;;;;;;20.02;5.80;;;23.80;99.90;;;;;;4976348;28;20110;-56
2022/05/22 01:49:58;;;;;;;16.20;5.65;;;23.80;99.90;;;;;;4972442;28;20070;-56
2022/05/22 01:52:24;;;;;;;22.45;5.25;;;23.80;99.90;;;;;;4971866;28;20049;-55
2022/05/22 01:54:50;;;;;;;16.90;5.63;;;23.80;99.90;;;;;;4973090;28;20049;-58
2022/05/22 01:57:15;;;;;;;18.88;5.00;;;23.90;99.90;;;;;;4971269;28;20097;-59
2022/05/22 01:59:41;;;;;;;16.92;5.75;;;23.90;99.90;;;;;;4989506;23;20042;-58
2022/05/22 02:02:07;;;;;;;16.80;5.97;;;23.80;99.90;;;;;;4992310;28;20145;-53
2022/05/22 02:04:33;;;;;;;21.00;6.22;;;23.80;99.90;;;;;;5005782;28;20065;-53
2022/05/22 02:09:44;;;;;;;16.27;6.03;;;23.80;99.90;;;;;;5011120;28;20029;-54
2022/05/22 02:12:09;;;;;;;13.95;5.43;;;23.80;99.90;;;;;;5011033;28;20402;-52
2022/05/22 02:14:35;;;;;;;19.45;6.97;;;23.80;99.90;;;;;;5010459;28;20109;-51
2022/05/22 02:17:01;;;;;;;13.40;4.80;;;23.80;99.90;;;;;;4993210;28;20076;-55
2022/05/22 02:19:27;;;;;;;20.00;4.50;;;23.80;99.90;;;;;;5011478;28;20021;-58
2022/05/22 02:21:53;;;;;;;13.95;4.80;;;23.80;99.90;;;;;;5014439;28;20053;-54
2022/05/22 02:24:19;;;;;;;16.65;4.47;;;23.90;99.90;;;;;;5011656;28;20038;-56
2022/05/22 02:26:45;;;;;;;12.93;4.40;;;23.80;99.90;;;;;;5014828;28;20072;-55
2022/05/22 02:29:12;;;;;;;14.73;5.07;;;23.90;99.90;;;;;;5003556;28;20470;-56
2022/05/22 02:31:38;;;;;;;12.15;4.50;;;23.90;99.90;;;;;;5002247;28;20014;-55
2022/05/22 02:34:03;;;;;;;13.80;5.20;;;23.90;99.90;;;;;;5008950;28;20504;-56
2022/05/22 02:36:29;;;;;;;18.27;5.18;;;23.90;99.90;;;;;;5014966;28;20076;-56
2022/05/22 02:38:55;;;;;;;22.80;5.78;;;24.00;99.90;;;;;;5012115;28;20501;-54
2022/05/22 02:41:21;;;;;;;17.08;5.60;;;24.00;99.90;;;;;;5001654;28;20022;-57
2022/05/22 02:43:47;;;;;;;14.15;4.55;;;24.10;99.90;;;;;;5014557;28;20029;-56
2022/05/22 02:46:15;;;;;;;19.50;4.15;;;24.10;99.90;;;;;;5004295;28;20030;-56
2022/05/22 02:48:42;;;;;;;11.63;4.10;;;24.10;99.90;;;;;;5024400;28;20496;-57
2022/05/22 02:51:14;;;;;;;13.73;4.38;;;24.10;99.90;;;;;;4998154;28;20331;-56
2022/05/22 02:53:40;;;;;;;16.00;4.70;;;24.10;99.90;;;;;;5004712;28;20240;-56
2022/05/22 02:56:12;;;;;;;15.48;4.90;;;24.10;99.90;;;;;;5013832;28;20093;-56
2022/05/22 02:58:38;;;;;;;18.75;5.07;;;24.10;99.90;;;;;;5005898;28;20026;-57
2022/05/22 03:01:05;;;;;;;20.58;7.03;;;24.00;99.90;;;;;;5008471;28;20410;-58
2022/05/22 03:03:31;;;;;;;26.00;7.97;;;23.90;99.90;;;;;;4995175;28;20066;-58
2022/05/22 03:08:42;;;;;;;22.60;6.45;;;23.60;99.90;;;;;;4997384;28;20025;-55
2022/05/22 03:11:08;;;;;;;18.60;6.47;;;23.40;99.90;;;;;;5025985;28;20124;-54
2022/05/22 03:13:34;;;;;;;24.45;7.50;;;23.20;99.90;;;;;;5000807;28;20093;-54
2022/05/22 03:16:00;;;;;;;20.20;6.47;;;23.20;99.90;;;;;;5014201;28;20413;-56
2022/05/22 03:18:26;;;;;;;29.98;8.73;;;23.10;99.90;;;;;;5012461;28;20018;-57
2022/05/22 03:20:51;;;;;;;22.05;7.30;;;23.10;99.90;;;;;;5007635;28;20111;-52
2022/05/22 03:23:18;;;;;;;21.65;7.30;;;23.00;99.90;;;;;;5009288;28;20425;-53
2022/05/22 03:25:46;;;;;;;21.60;7.05;;;23.20;99.90;;;;;;5012929;28;20061;-52
2022/05/22 03:28:12;;;;;;;22.60;7.18;;;23.30;99.90;;;;;;4998048;28;20097;-53
2022/05/22 03:30:38;;;;;;;18.17;6.38;;;23.40;99.90;;;;;;4998919;28;20169;-53
2022/05/22 03:33:03;;;;;;;20.90;7.07;;;23.50;99.90;;;;;;4994010;28;20026;-52
2022/05/22 03:35:29;;;;;;;21.80;6.65;;;23.70;99.90;;;;;;4997174;28;20034;-52
2022/05/22 03:37:55;;;;;;;18.15;6.38;;;23.80;99.90;;;;;;5004980;28;20029;-52
2022/05/22 03:40:22;;;;;;;22.58;6.95;;;23.80;99.90;;;;;;5013558;28;20046;-52
2022/05/22 03:42:47;;;;;;;24.15;6.50;;;24.00;99.90;;;;;;5013545;28;20058;-52
2022/05/22 03:45:14;;;;;;;19.70;6.13;;;24.10;99.90;;;;;;4999796;28;20112;-51
2022/05/22 03:47:40;;;;;;;20.25;5.65;;;24.10;99.90;;;;;;5000238;28;20524;-52
2022/05/22 03:50:08;;;;;;;18.92;6.25;;;24.10;99.90;;;;;;5004745;28;20058;-52
2022/05/22 03:52:37;;;;;;;22.10;6.95;;;24.10;99.90;;;;;;5013496;28;20105;-53
2022/05/22 03:55:04;;;;;;;20.27;5.63;;;24.10;99.90;;;;;;5004045;28;20030;-52
2022/05/22 03:57:30;;;;;;;;;;;24.20;99.90;;;;;;4999462;28;20034;-52
2022/05/22 03:59:56;;;;;;;18.85;6.38;;;24.10;99.90;;;;;;5005013;28;19917;-52
2022/05/22 04:02:22;;;;;;;16.15;5.43;;;24.20;99.90;;;;;;4994488;28;20022;-52
2022/05/22 04:04:48;;;;;;;17.42;5.93;;;24.20;99.90;;;;;;4993810;28;20069;-52
2022/05/22 04:07:15;;;;;;;23.77;5.70;;;24.20;99.90;;;;;;4993892;28;20489;-52
2022/05/22 04:09:41;;;;;;;20.25;6.45;;;24.20;99.90;;;;;;4993820;28;20037;-52
2022/05/22 04:12:09;;;;;;;18.17;5.72;;;24.30;99.90;;;;;;4993997;28;20379;-52
2022/05/22 04:14:35;;;;;;;21.65;6.13;;;24.30;99.90;;;;;;4993891;28;20104;-52
2022/05/22 04:17:01;;;;;;;13.95;4.80;;;24.30;99.90;;;;;;4993876;28;20471;-52
2022/05/22 04:19:27;;;;;;;16.35;5.32;;;24.30;99.90;;;;;;4993575;28;20033;-52
2022/05/22 04:21:53;;;;;;;17.65;5.60;;;24.30;99.90;;;;;;4993668;28;20026;-52
2022/05/22 04:27:07;;;;;;;15.38;4.90;;;24.40;99.90;;;;;;4993933;28;20042;-52
2022/05/22 04:29:34;;;;;;;14.90;4.82;;;24.40;99.90;;;;;;4993550;28;20050;-52
2022/05/22 04:32:00;;;;;;;;;;;24.50;99.90;;;;;;4993865;28;20026;-52
2022/05/22 04:34:26;;;;;;;12.30;4.05;;;24.40;99.90;;;;;;4993380;28;19959;-52
2022/05/22 04:36:51;;;;;;;14.52;5.00;;;24.40;99.90;;;;;;4993288;28;20101;-52
2022/05/22 04:39:17;;;;;;;13.25;4.22;;;24.40;99.90;;;;;;4993308;28;20371;-52
2022/05/22 04:41:43;;;;;;;12.48;4.72;;;24.40;99.90;;;;;;4993249;28;20035;-52
2022/05/22 04:44:09;;;;;;;10.57;4.05;;;24.40;99.90;;;;;;4992382;28;20038;-52
2022/05/22 04:46:34;;;;;;;14.35;3.83;;;24.50;99.90;;;;;;4993322;28;20486;-52
2022/05/22 04:49:00;;;;;;;11.77;4.28;;;24.50;99.90;;;;;;4993115;28;20029;-54
2022/05/22 04:51:26;;;;;;;17.05;5.10;;;24.50;99.90;;;;;;4992806;28;20037;-53
2022/05/22 04:53:52;;;;;;;15.40;3.92;;;24.50;99.90;;;;;;4992818;28;20026;-53
2022/05/22 04:56:18;;;;;;;11.70;4.28;;;24.60;99.90;;;;;;4992969;28;20038;-53
2022/05/22 04:58:46;;;;;;;17.25;5.18;;;24.60;99.90;;;;;;4992834;28;20037;-53
2022/05/22 05:01:12;;;;;;;18.95;10.18;;;24.60;99.90;;;;;;5007804;28;20164;-52
2022/05/22 05:03:38;;;;;;;13.55;5.57;;;24.60;99.90;;;;;;4992865;28;20034;-53
2022/05/22 05:06:04;;;;;;;12.98;5.18;;;24.70;99.90;;;;;;4992977;28;20355;-52
2022/05/22 05:08:31;;;;;;;14.10;3.75;;;24.70;99.90;;;;;;4992740;28;20018;-52
2022/05/22 05:10:57;;;;;;;13.25;7.25;;;24.70;99.90;;;;;;4992680;28;20054;-52
2022/05/22 05:13:24;;;;;;;10.85;4.50;;;24.70;99.90;;;;;;4992680;28;20030;-53
2022/05/22 05:15:58;;;;;;;11.27;5.07;;;24.80;99.90;;;;;;5007727;28;20113;-53
2022/05/22 05:18:24;;;;;;;25.58;14.60;;;24.70;99.90;;;;;;4992473;28;20500;-53
2022/05/22 05:20:51;;;;;;;18.20;9.77;;;24.70;99.90;;;;;;4992483;28;20031;-53
2022/05/22 05:23:17;;;;;;;25.27;11.50;;;24.70;99.90;;;;;;4992432;28;20037;-53
2022/05/22 05:25:42;;;;;;;19.92;8.48;;;24.70;99.90;;;;;;4992302;28;20390;-53
2022/05/22 05:28:08;;;;;;;17.13;5.18;;;24.80;99.90;;;;;;4992617;28;20097;-53
2022/05/22 05:30:34;;;;;;;25.38;14.13;;;24.70;99.90;;;;;;4992395;28;20030;-53
2022/05/22 05:33:00;;;;;;;30.63;15.68;;;24.80;99.90;;;;;;4992371;28;20387;-53
2022/05/22 05:35:26;;;;;;;17.67;9.75;;;24.70;99.90;;;;;;4992308;28;20022;-53
2022/05/22 05:37:51;;;;;;;12.90;6.28;;;24.80;99.90;;;;;;4992229;28;20041;-53
2022/05/22 05:40:18;;;;;;;11.45;5.30;;;24.70;99.90;;;;;;4992208;28;20034;-53
2022/05/22 05:42:44;;;;;;;14.32;5.43;;;24.70;99.90;;;;;;4992331;28;20029;-52
2022/05/22 05:45:12;;;;;;;15.93;8.70;;;24.70;99.90;;;;;;4992266;28;20045;-53
2022/05/22 05:47:38;;;;;;;16.40;7.72;;;24.70;99.90;;;;;;4992423;28;20379;-52
2022/05/22 05:50:05;;;;;;;10.48;5.55;;;24.70;99.90;;;;;;4991939;28;20023;-52
2022/05/22 05:52:31;;;;;;;16.40;7.18;;;24.70;99.90;;;;;;4992026;28;20022;-53
2022/05/22 05:54:57;;;;;;;15.10;5.75;;;24.70;99.90;;;;;;4991084;28;20036;-52
2022/05/22 05:57:23;;;;;;;29.15;17.85;;;24.70;99.90;;;;;;4991986;28;20374;-53
2022/05/22 05:59:54;;;;;;;20.45;8.68;;;24.70;99.90;;;;;;4991837;28;20039;-53
2022/05/22 06:02:20;;;;;;;17.10;8.30;;;24.70;99.90;;;;;;4991782;28;20033;-54
2022/05/22 06:04:46;;;;;;;15.63;6.13;;;24.70;99.90;;;;;;4991781;28;20038;-55
2022/05/22 06:07:12;;;;;;;15.63;6.10;;;24.70;99.90;;;;;;4991891;28;20034;-53
2022/05/22 06:09:38;;;;;;;37.65;22.88;;;24.70;99.90;;;;;;4992020;28;20532;-53
2022/05/22 06:12:05;;;;;;;14.40;7.85;;;24.80;99.90;;;;;;4991840;28;20040;-53
2022/05/22 06:14:31;;;;;;;60.60;41.85;;;24.80;99.90;;;;;;4991735;28;20030;-53
2022/05/22 06:16:57;;;;;;;33.72;20.17;;;24.80;99.90;;;;;;4991691;28;20034;-54
2022/05/22 06:20:06;;;;;;;20.77;8.32;;;24.80;99.90;;;;;;4991794;28;20018;-52
2022/05/22 06:22:15;;;;;;;17.55;8.48;;;24.90;99.90;;;;;;4986329;28;20042;-51
2022/05/22 06:24:41;;;;;;;14.43;6.15;;;24.90;99.90;;;;;;5006654;28;20130;-52
2022/05/22 06:27:06;;;;;;;13.25;6.95;;;24.90;99.90;;;;;;4991576;28;20471;-51
2022/05/22 06:29:32;;;;;;;20.73;7.43;;;24.90;99.90;;;;;;4991623;28;20105;-53
2022/05/22 06:31:58;;;;;;;19.92;7.43;;;24.90;99.90;;;;;;4991397;28;20482;-52
2022/05/22 06:34:24;;;;;;;19.58;8.20;;;24.90;99.90;;;;;;4990365;28;20022;-53
2022/05/22 06:36:51;;;;;;;22.58;7.40;;;24.90;99.90;;;;;;4991485;28;20382;-52
2022/05/22 06:42:02;;;;;;;29.42;7.80;;;25.00;99.90;;;;;;4991652;28;20049;-52
2022/05/22 06:44:28;;;;;;;19.63;7.93;;;25.00;99.90;;;;;;4991432;28;20116;-53
2022/05/22 06:46:54;;;;;;;15.82;7.28;;;25.00;99.90;;;;;;4991561;28;20455;-52
2022/05/22 06:49:20;;;;;;;30.30;9.05;;;25.00;99.90;;;;;;4991547;28;20509;-52
2022/05/22 06:51:47;;;;;;;23.38;7.93;;;25.00;99.90;;;;;;4991485;28;20022;-53
2022/05/22 06:54:12;;;;;;;23.50;8.13;;;25.00;99.90;;;;;;4991635;28;20022;-52
2022/05/22 06:56:38;;;;;;;20.63;6.82;;;25.00;99.90;;;;;;4991384;28;20030;-53
2022/05/22 06:59:04;;;;;;;23.10;6.55;;;24.90;99.90;;;;;;4991506;28;20027;-52
2022/05/22 07:01:30;;;;;;;22.40;7.35;;;25.00;99.90;;;;;;4991282;28;20085;-52
2022/05/22 07:03:55;;;;;;;17.25;7.05;;;25.00;99.90;;;;;;4991274;28;20030;-52
2022/05/22 07:06:21;;;;;;;21.50;6.60;;;25.00;99.90;;;;;;4992888;28;20053;-52
2022/05/22 07:08:47;;;;;;;21.10;6.78;;;25.00;99.90;;;;;;4994788;28;20037;-51
2022/05/22 07:13:57;;;;;;;17.60;7.05;;;25.00;99.90;;;;;;4994634;28;20454;-52
2022/05/22 07:16:23;;;;;;;16.98;6.35;;;25.00;99.90;;;;;;4994737;28;20058;-51
2022/05/22 07:18:49;;;;;;;19.52;6.47;;;25.00;99.90;;;;;;4994671;28;20068;-52
2022/05/22 07:21:14;;;;;;;27.58;7.10;;;25.00;99.90;;;;;;4994839;28;20085;-52
2022/05/22 07:23:40;;;;;;;28.17;8.10;;;25.00;99.90;;;;;;4993613;28;20026;-52
2022/05/22 07:26:06;;;;;;;23.20;6.75;;;25.10;99.90;;;;;;4994601;28;20050;-52
2022/05/22 07:28:32;;;;;;;20.20;7.60;;;25.10;99.90;;;;;;4994518;28;20019;-52
2022/05/22 07:30:57;;;;;;;28.13;8.48;;;25.10;99.90;;;;;;4994412;28;20054;-52
2022/05/22 07:33:23;;;;;;;20.52;6.95;;;25.10;99.90;;;;;;4994499;28;20077;-52
2022/05/22 07:35:57;;;;;;;23.50;7.47;;;25.10;99.90;;;;;;4994345;28;20386;-52
2022/05/22 07:38:23;;;;;;;19.58;7.00;;;25.20;99.90;;;;;;4994413;28;20073;-53
2022/05/22 07:40:51;;;;;;;26.55;7.50;;;25.20;99.90;;;;;;4994365;28;20758;-52
2022/05/22 07:43:17;;;;;;;29.42;8.55;;;25.20;99.90;;;;;;4994334;28;20126;-52
2022/05/22 07:45:43;;;;;;;22.10;8.00;;;25.20;99.90;;;;;;4994520;28;20113;-52
2022/05/22 07:48:09;;;;;;;19.85;8.27;;;25.30;99.90;;;;;;4993587;28;20030;-52
2022/05/22 07:50:35;;;;;;;19.33;7.18;;;25.30;99.90;;;;;;4994019;28;20037;-53
2022/05/22 07:53:01;;;;;;;23.50;7.53;;;25.30;99.90;;;;;;4994126;28;20026;-53
2022/05/22 07:55:27;;;;;;;18.65;7.13;;;25.30;99.90;;;;;;4993953;28;20030;-53
2022/05/22 07:57:53;;;;;;;25.80;7.75;;;25.30;99.90;;;;;;4993876;28;20092;-53
2022/05/22 08:00:20;;;;;;;18.15;7.15;;;25.30;99.90;;;;;;4993639;28;20054;-53
2022/05/22 08:02:47;;;;;;;22.08;7.28;;;25.40;99.90;;;;;;4994346;28;20022;-53
2022/05/22 08:05:15;;;;;;;22.15;7.88;;;25.40;99.90;;;;;;4993941;28;20137;-52
2022/05/22 08:07:40;;;;;;;21.65;7.47;;;25.40;99.90;;;;;;4993851;28;20109;-53
2022/05/22 08:10:08;;;;;;;22.60;7.03;;;25.40;99.90;;;;;;4993841;28;20105;-52
2022/05/22 08:12:39;;;;;;;24.33;9.18;;;25.50;99.90;;;;;;4993780;28;20029;-53
2022/05/22 08:15:07;;;;;;;21.73;7.65;;;25.40;99.90;;;;;;4993509;28;20026;-52
2022/05/22 08:17:36;;;;;;;20.25;7.63;;;25.50;99.90;;;;;;4992767;28;20502;-52
2022/05/22 08:20:04;;;;;;;21.50;8.50;;;25.50;99.90;;;;;;4993629;28;20014;-54
2022/05/22 08:22:30;;;;;;;24.17;10.00;;;25.60;99.90;;;;;;4993606;28;20110;-53
2022/05/22 08:24:56;;;;;;;23.83;8.60;;;25.60;99.90;;;;;;4993567;28;20034;-53
2022/05/22 08:27:22;;;;;;;19.48;8.15;;;25.60;99.90;;;;;;4993535;28;20029;-52
2022/05/22 08:29:48;;;;;;;21.23;7.95;;;25.60;99.90;;;;;;4993636;28;20026;-53
2022/05/22 08:32:13;;;;;;;20.58;7.80;;;25.60;99.90;;;;;;4993392;28;20061;-53
2022/05/22 08:34:39;;;;;;;16.67;7.95;;;25.60;99.90;;;;;;4993183;28;20034;-53
2022/05/22 08:37:05;;;;;;;23.98;9.35;;;25.60;99.90;;;;;;4993246;28;20026;-53
2022/05/22 08:39:32;;;;;;;17.20;8.35;;;25.70;99.90;;;;;;4993248;28;20039;-52
2022/05/22 08:41:59;;;;;;;24.13;10.02;;;25.70;99.90;;;;;;4993064;28;20026;-52
2022/05/22 08:44:32;;;;;;;20.42;8.35;;;25.70;99.90;;;;;;4993182;28;20109;-53
2022/05/22 08:47:06;;;;;;;20.58;6.97;;;25.70;99.90;;;;;;4993176;28;20034;-53
2022/05/22 08:49:38;;;;;;;22.30;11.68;;;25.80;99.90;;;;;;4993081;28;20014;-53
2022/05/22 08:52:36;;;;;;;22.42;8.70;;;25.70;99.90;;;;;;4992952;28;20034;-52
2022/05/22 08:55:14;;;;;;;23.27;11.25;;;25.80;99.90;;;;;;4993181;28;20104;-52
2022/05/22 09:00:30;;;;;;;19.20;7.85;;;25.90;99.90;;;;;;4992717;28;20116;-53
2022/05/22 09:03:09;;;;;;;17.85;7.90;;;26.00;99.90;;;;;;4992823;28;20019;-52
2022/05/22 09:05:36;;;;;;;25.27;7.45;;;26.00;99.90;;;;;;4991490;28;20038;-55
2022/05/22 09:08:12;;;;;;;22.57;8.83;;;26.00;99.90;;;;;;4992605;28;20027;-52
2022/05/22 09:11:16;;;;;;;17.63;7.82;;;26.10;99.90;;;;;;4992678;28;20067;-53
2022/05/22 09:13:51;;;;;;;17.77;6.75;;;26.10;99.90;;;;;;4992479;28;20030;-52
2022/05/22 09:16:27;;;;;;;23.85;7.05;;;26.10;99.90;;;;;;4992705;28;20386;-53
2022/05/22 09:19:06;;;;;;;19.67;7.00;;;26.10;99.90;;;;;;4992278;28;20031;-52
2022/05/22 09:21:35;;;;;;;17.45;7.03;;;26.20;99.90;;;;;;4992400;28;20263;-52
2022/05/22 09:24:05;;;;;;;23.40;10.50;;;26.20;99.90;;;;;;4992103;28;20026;-52
2022/05/22 09:26:46;;;;;;;29.13;11.40;;;26.20;99.90;;;;;;4992346;28;20038;-53
2022/05/22 09:29:30;;;;;;;24.23;10.52;;;26.20;99.90;;;;;;4990787;28;20026;-53
2022/05/22 09:32:16;;;;;;;22.25;8.10;;;26.20;99.90;;;;;;4992239;28;20046;-52
2022/05/22 09:35:06;;;;;;;22.95;8.98;;;26.20;99.90;;;;;;4992014;28;20415;-53
2022/05/22 09:38:02;;;;;;;15.98;7.80;;;26.30;99.90;;;;;;4991875;28;20030;-53
2022/05/22 09:40:44;;;;;;;22.15;7.20;;;26.30;99.90;;;;;;4992112;28;20115;-53
2022/05/22 09:43:32;;;;;;;16.70;6.80;;;26.30;99.90;;;;;;4991983;28;20053;-53
2022/05/22 09:46:20;;;;;;;22.48;7.57;;;26.30;99.90;;;;;;4991769;28;20042;-53
2022/05/22 09:49:10;;;;;;;21.05;9.77;;;26.40;99.90;;;;;;4991852;28;20018;-54
2022/05/22 09:51:44;;;;;;;23.02;8.40;;;26.40;99.90;;;;;;4991922;28;20022;-51
2022/05/22 09:54:13;;;;;;;22.70;7.32;;;26.40;99.90;;;;;;4991848;28;20042;-53
2022/05/22 09:57:00;;;;;;;15.40;7.28;;;26.40;99.90;;;;;;4991829;28;20541;-53
2022/05/22 09:59:51;;;;;;;20.80;9.50;;;26.40;99.90;;;;;;4991748;28;20034;-52
2022/05/22 10:02:44;;;;;;;16.65;6.43;;;26.50;99.90;;;;;;4991767;28;20034;-52
2022/05/22 10:05:20;;;;;;;17.20;7.05;;;26.50;99.90;;;;;;4991614;28;20042;-52
2022/05/22 10:07:52;;;;;;;21.15;6.93;;;26.50;99.90;;;;;;5002447;28;20030;-54
2022/05/22 10:10:40;;;;;;;20.92;7.75;;;26.50;99.90;;;;;;5000214;28;20048;-50
2022/05/22 10:13:25;;;;;;;17.20;6.50;;;26.50;99.90;;;;;;5002540;28;20025;-53
2022/05/22 10:16:02;;;;;;;16.02;6.20;;;26.50;99.90;;;;;;4991983;28;20552;-53
2022/05/22 10:19:05;;;;;;;22.98;7.55;;;26.50;99.90;;;;;;5009210;28;20026;-53
2022/05/22 10:22:03;;;;;;;18.55;6.72;;;26.50;99.90;;;;;;5010102;28;20033;-54
2022/05/22 10:24:38;;;;;;;13.30;6.22;;;26.50;99.90;;;;;;4957564;28;20043;-55
2022/05/22 10:27:25;;;;;;;23.33;7.78;;;26.60;99.90;;;;;;5011329;28;20026;-54
2022/05/22 10:30:02;;;;;;;17.00;6.05;;;26.50;99.90;;;;;;5011325;28;20040;-53
2022/05/22 10:32:52;;;;;;;17.63;5.55;;;26.50;99.90;;;;;;5002592;28;20092;-53
2022/05/22 10:35:26;;;;;;;18.10;9.30;;;26.50;99.90;;;;;;5007462;28;20034;-53
2022/05/22 10:38:04;;;;;;;29.13;17.15;;;26.50;99.90;;;;;;5010221;28;20036;-53
2022/05/22 10:43:14;;;;;;;22.15;11.35;;;26.40;99.90;;;;;;5014323;28;20115;-53
2022/05/22 10:45:40;;;;;;;23.88;12.05;;;26.40;99.90;;;;;;5013769;28;20061;-52
2022/05/22 10:48:24;;;;;;;22.23;8.80;;;26.30;99.90;;;;;;5012657;28;20476;-53
2022/05/22 10:51:02;;;;;;;25.27;10.02;;;26.30;99.90;;;;;;5013787;28;20057;-53
2022/05/22 10:53:32;;;;;;;;;;;26.40;99.90;;;;;;5015075;28;20105;-53
2022/05/22 10:56:29;;;;;;;15.48;6.57;;;26.40;99.90;;;;;;5014881;28;19912;-53
2022/05/22 10:59:06;;;;;;;14.85;5.97;;;26.30;99.90;;;;;;5013660;28;20042;-53
2022/05/22 11:01:38;;;;;;;12.77;5.75;;;26.30;99.90;;;;;;5003859;28;20058;-55
2022/05/22 11:04:13;;;;;;;16.85;5.95;;;26.20;99.90;;;;;;4992860;28;20061;-55
2022/05/22 11:07:00;;;;;;;17.17;5.05;;;26.20;99.90;;;;;;4997792;28;20041;-56
2022/05/22 11:09:32;;;;;;;15.65;5.32;;;26.10;99.90;;;;;;4995888;28;20479;-55
2022/05/22 11:12:10;;;;;;;16.02;5.05;;;26.10;99.90;;;;;;4992852;28;20501;-56
2022/05/22 11:14:36;;;;;;;14.55;4.65;;;26.20;99.90;;;;;;5013097;28;20057;-54
2022/05/22 11:17:19;;;;;;;13.65;5.32;;;26.20;99.90;;;;;;5014188;28;20032;-54
2022/05/22 11:19:48;;;;;;;13.73;5.40;;;26.30;99.90;;;;;;5011819;28;20037;-54
2022/05/22 11:22:27;;;;;;;15.70;4.68;;;26.40;99.90;;;;;;5010126;28;20464;-52
2022/05/22 11:25:18;;;;;;;29.55;14.80;;;26.40;99.90;;;;;;5002818;28;20419;-53
2022/05/22 11:27:52;;;;;;;21.58;8.63;;;26.40;99.90;;;;;;5009297;28;20034;-52
2022/05/22 11:30:54;;;;;;;13.50;5.88;;;26.40;99.90;;;;;;5006721;28;20344;-52
2022/05/22 11:33:32;;;;;;;17.63;7.00;;;26.50;99.90;;;;;;4994641;28;20026;-50
2022/05/22 11:36:04;;;;;;;14.32;5.10;;;26.60;99.90;;;;;;5008525;28;20030;-53
2022/05/22 11:38:53;;;;;;;16.13;6.45;;;26.60;99.90;;;;;;5012977;28;20042;-52
2022/05/22 11:41:35;;;;;;;16.75;7.43;;;26.60;99.90;;;;;;4999058;28;20433;-54
2022/05/22 11:44:13;;;;;;;17.88;5.38;;;26.70;99.90;;;;;;5012004;28;20045;-54
2022/05/22 11:47:05;;;;;;;16.35;5.35;;;26.70;99.90;;;;;;4999444;28;20030;-51
2022/05/22 11:49:34;;;;;;;19.67;8.55;;;26.70;99.90;;;;;;4997734;28;20023;-51
2022/05/22 11:52:53;;;;;;;15.48;6.32;;;26.80;99.90;;;;;;5007276;28;20034;-54
2022/05/22 11:55:35;;;;;;;30.75;15.35;;;26.80;99.90;;;;;;4997439;28;20022;-53
2022/05/22 11:58:19;;;;;;;20.63;10.65;;;27.00;99.90;;;;;;5027278;28;20394;-50
2022/05/22 12:01:03;;;;;;;20.25;8.93;;;27.00;99.90;;;;;;5008121;28;20491;-54
2022/05/22 12:03:37;;;;;;;13.02;6.45;;;27.10;99.90;;;;;;5008651;28;20077;-53
2022/05/22 12:06:09;;;;;;;14.90;5.53;;;27.20;99.90;;;;;;5012531;28;20041;-53
2022/05/22 12:08:50;;;;;;;13.15;6.72;;;27.30;99.90;;;;;;5011968;28;20018;-54
2022/05/22 12:11:24;;;;;;;12.05;5.35;;;27.30;99.90;;;;;;5009246;28;20062;-50
2022/05/22 12:14:30;;;;;;;22.38;9.80;;;27.20;99.90;;;;;;5011685;28;20069;-51
2022/05/22 12:17:17;;;;;;;28.02;16.17;;;27.20;99.90;;;;;;5009445;28;20105;-49
2022/05/22 12:20:01;;;;;;;20.98;13.52;;;27.10;99.90;;;;;;5002778;28;20037;-49
2022/05/22 12:25:22;;;;;;;28.15;11.48;;;27.20;99.90;;;;;;5012680;28;20057;-47
2022/05/22 12:27:49;;;;;;;14.40;4.90;;;27.20;99.90;;;;;;4993606;28;20062;-50
2022/05/22 12:30:18;;;;;;;;;;;27.10;99.90;;;;;;4999204;28;20105;-47
2022/05/22 12:32:49;;;;;;;17.85;7.80;;;27.20;99.90;;;;;;5012288;28;19906;-48
2022/05/22 12:35:18;;;;;;;23.25;12.40;;;27.20;99.90;;;;;;5012527;28;20080;-47
2022/05/22 12:38:08;;;;;;;26.55;17.60;;;27.20;99.90;;;;;;5012547;28;20461;-46
2022/05/22 12:40:58;;;;;;;21.85;14.88;;;27.20;99.90;;;;;;5012503;28;20025;-48
2022/05/22 12:43:25;;;;;;;25.73;16.27;;;27.30;99.90;;;;;;5008168;28;20026;-50
2022/05/22 12:46:01;;;;;;;23.58;9.32;;;27.40;99.90;;;;;;5012053;28;20041;-50
2022/05/22 12:48:38;;;;;;;20.60;7.05;;;27.50;99.90;;;;;;5012347;28;20034;-50
2022/05/22 12:51:07;;;;;;;;;;;27.50;99.90;;;;;;5012530;28;20425;-49
2022/05/22 12:53:35;;;;;;;17.92;7.28;;;27.50;99.90;;;;;;4999912;28;20377;-47
2022/05/22 12:56:19;;;;;;;11.45;5.07;;;27.60;99.90;;;;;;5004632;28;20172;-49
2022/05/22 12:59:16;;;;;;;16.77;6.10;;;27.60;99.90;;;;;;5005941;28;20145;-50
2022/05/22 13:01:45;;;;;;;18.35;5.40;;;27.50;99.90;;;;;;5008629;28;20045;-49
2022/05/22 13:04:19;;;;;;;17.90;6.75;;;27.50;99.90;;;;;;5007637;28;20026;-50
2022/05/22 13:06:59;;;;;;;19.90;6.15;;;27.40;99.90;;;;;;5006403;28;20037;-50
2022/05/22 13:09:33;;;;;;;17.70;6.05;;;27.40;99.90;;;;;;5007927;28;20058;-50
2022/05/22 13:12:19;;;;;;;22.50;7.25;;;27.40;99.90;;;;;;5007198;28;20032;-51
2022/05/22 13:14:48;;;;;;;17.20;6.32;;;27.40;99.90;;;;;;5009321;28;20030;-51
2022/05/22 13:17:17;;;;;;;25.98;7.75;;;27.50;99.90;;;;;;5009567;28;20029;-51
2022/05/22 13:19:53;;;;;;;30.73;16.90;;;27.50;99.90;;;;;;5003388;28;20121;-52
2022/05/22 13:22:31;;;;;;;18.85;7.63;;;27.50;99.90;;;;;;5007926;28;20026;-51